Time;durP1;ratioP1;P1;durP2;ratioP2;P2;SDS_P1;SDS_P2;PMS_P1;PMS_P2;Temp;Humidity;BMP_temperature;BMP_pressure;BME280_temperature;BME280_humidity;BME280_pressure;Samples;Min_cycle;Max_cycle;Signal;HPM_P1;HPM_P2
2021/01/13 00:00:05;;;;;;;6.93;1.75;;;-3276.50;98.30;;;;;;4979646;28;20054;-84
2021/01/13 00:02:43;;;;;;;6.10;2.85;;;-3276.50;98.30;;;;;;4967784;28;20055;-79
2021/01/13 00:05:18;;;;;;;7.13;2.67;;;-3276.60;98.30;;;;;;4972853;28;20055;-81
2021/01/13 00:07:50;;;;;;;4.45;1.95;;;-3276.60;98.30;;;;;;4956297;28;20081;-83
2021/01/13 00:10:17;;;;;;;5.25;2.75;;;-3276.60;98.30;;;;;;4939892;28;20070;-84
2021/01/13 00:12:45;;;;;;;10.18;3.13;;;-3276.50;98.10;;;;;;4979975;28;20051;-84
2021/01/13 00:15:12;;;;;;;4.85;2.70;;;-3276.40;97.90;;;;;;4960818;28;20066;-81
2021/01/13 00:17:46;;;;;;;7.88;2.67;;;-3276.40;97.90;;;;;;4944011;28;20057;-83
2021/01/13 00:20:14;;;;;;;6.88;3.28;;;-3276.20;97.90;;;;;;4956429;28;20102;-83
2021/01/13 00:22:41;;;;;;;5.38;2.10;;;-3276.20;97.90;;;;;;4956522;28;20318;-83
2021/01/13 00:25:08;;;;;;;4.80;2.90;;;-3276.20;98.00;;;;;;4973430;28;20060;-82
2021/01/13 00:27:36;;;;;;;8.90;3.22;;;-3276.10;97.90;;;;;;4977110;28;20116;-83
2021/01/13 00:30:05;;;;;;;8.45;1.75;;;-3276.00;97.90;;;;;;4973031;28;20078;-82
2021/01/13 00:32:32;;;;;;;4.00;2.08;;;-3276.00;98.00;;;;;;4980030;28;20125;-83
2021/01/13 00:34:59;;;;;;;6.82;2.40;;;-3276.00;98.00;;;;;;4950458;28;20054;-82
2021/01/13 00:37:27;;;;;;;5.82;2.08;;;-3275.90;97.90;;;;;;4984179;28;20071;-81
2021/01/13 00:39:54;;;;;;;3.45;1.50;;;-3275.90;98.00;;;;;;4965507;28;20356;-82
2021/01/13 00:42:21;;;;;;;7.03;1.98;;;-3275.80;98.10;;;;;;4965453;28;20043;-81
2021/01/13 00:44:50;;;;;;;6.88;2.50;;;-3275.90;98.30;;;;;;4983248;28;20061;-81
2021/01/13 00:47:17;;;;;;;4.68;2.30;;;-3275.90;98.40;;;;;;4966706;28;20042;-85
2021/01/13 00:49:44;;;;;;;6.25;2.17;;;-3276.10;98.50;;;;;;4985058;28;20038;-82
2021/01/13 00:52:11;;;;;;;4.40;2.03;;;-3276.20;98.50;;;;;;4982134;28;20042;-84
2021/01/13 00:54:39;;;;;;;8.77;3.30;;;-3276.30;98.50;;;;;;4962846;28;20262;-82
2021/01/13 00:57:07;;;;;;;2.80;1.52;;;-3276.40;98.40;;;;;;4963713;28;21708;-84
2021/01/13 00:59:35;;;;;;;6.20;2.25;;;-3276.40;98.40;;;;;;4966007;28;20397;-84
2021/01/13 01:02:04;;;;;;;4.80;2.00;;;-3276.50;98.30;;;;;;4982779;28;20054;-82
2021/01/13 01:04:31;;;;;;;4.80;2.15;;;-3276.60;98.20;;;;;;4965621;28;20066;-84
2021/01/13 01:07:02;;;;;;;3.67;2.22;;;-3276.60;98.20;;;;;;4984493;28;20085;-83
2021/01/13 01:09:31;;;;;;;6.30;2.55;;;-3276.60;98.10;;;;;;4982004;28;20498;-84
2021/01/13 01:11:59;;;;;;;4.88;2.15;;;-3276.60;97.90;;;;;;4968886;28;20117;-85
2021/01/13 01:14:25;;;;;;;10.65;2.85;;;-3276.70;97.80;;;;;;4962483;28;20059;-84
2021/01/13 01:16:52;;;;;;;5.05;1.98;;;-3276.70;97.70;;;;;;4944101;29;20072;-81
2021/01/13 01:19:21;;;;;;;4.85;2.40;;;-3276.70;97.80;;;;;;4946153;29;20058;-82
2021/01/13 01:21:48;;;;;;;3.78;1.70;;;0.00;97.70;;;;;;4943570;29;20063;-83
2021/01/13 01:24:16;;;;;;;3.85;2.15;;;0.00;97.60;;;;;;4943289;29;20059;-84
2021/01/13 01:26:44;;;;;;;6.57;2.05;;;0.00;97.60;;;;;;4962583;28;20063;-81
2021/01/13 01:29:12;;;;;;;5.88;2.00;;;0.00;97.50;;;;;;4944255;29;20060;-83
2021/01/13 01:31:39;;;;;;;6.93;3.03;;;0.00;97.40;;;;;;4961910;28;20247;-82
2021/01/13 01:34:06;;;;;;;4.95;2.05;;;0.00;97.40;;;;;;4942624;29;20081;-83
2021/01/13 01:36:33;;;;;;;5.25;2.45;;;0.00;97.40;;;;;;4943496;29;20385;-82
2021/01/13 01:39:00;;;;;;;3.03;1.85;;;0.00;97.30;;;;;;4943503;29;20269;-82
2021/01/13 01:41:28;;;;;;;12.25;3.38;;;0.00;97.20;;;;;;4947569;29;20067;-86
2021/01/13 01:43:55;;;;;;;6.53;2.88;;;0.00;97.20;;;;;;4941119;29;20118;-83
2021/01/13 01:46:25;;;;;;;8.75;4.40;;;0.00;97.20;;;;;;4941565;29;20071;-83
2021/01/13 01:48:54;;;;;;;6.30;2.78;;;0.10;97.00;;;;;;4924473;29;20099;-84
2021/01/13 01:51:23;;;;;;;10.70;3.30;;;0.10;96.90;;;;;;4936692;29;20547;-83
2021/01/13 01:54:02;;;;;;;9.63;3.92;;;0.10;96.70;;;;;;4939144;29;20071;-85
2021/01/13 01:56:36;;;;;;;9.82;2.60;;;0.00;96.70;;;;;;4959347;28;20055;-82
2021/01/13 01:59:06;;;;;;;10.45;3.83;;;0.00;96.70;;;;;;4940588;29;20059;-81
2021/01/13 02:01:36;;;;;;;11.85;3.08;;;0.00;96.70;;;;;;4937830;29;20063;-83
2021/01/13 02:04:17;;;;;;;12.13;4.13;;;0.00;96.50;;;;;;4941954;29;20052;-82
2021/01/13 02:07:05;;;;;;;6.03;2.97;;;0.00;96.20;;;;;;4958973;28;20076;-83
2021/01/13 02:09:34;;;;;;;9.30;2.75;;;0.00;96.20;;;;;;4938486;29;20370;-83
2021/01/13 02:12:09;;;;;;;5.55;2.55;;;0.00;96.10;;;;;;4938504;29;20123;-81
2021/01/13 02:14:36;;;;;;;6.05;3.28;;;0.00;95.80;;;;;;4951602;28;20054;-83
2021/01/13 02:17:08;;;;;;;7.47;2.58;;;0.00;95.70;;;;;;4949541;28;20077;-83
2021/01/13 02:20:14;;;;;;;8.38;4.22;;;0.00;95.60;;;;;;4981280;28;20053;-83
2021/01/13 02:22:58;;;;;;;10.57;2.50;;;0.00;95.60;;;;;;4981286;28;20058;-82
2021/01/13 02:25:58;;;;;;;9.10;3.63;;;0.00;95.60;;;;;;4959987;28;20065;-82
2021/01/13 02:28:29;;;;;;;9.90;3.17;;;0.00;95.40;;;;;;4984719;28;20055;-82
2021/01/13 02:31:38;;;;;;;4.53;2.35;;;0.00;95.30;;;;;;4966031;28;20065;-81
2021/01/13 02:34:23;;;;;;;6.20;2.92;;;0.00;95.40;;;;;;4984565;28;20066;-86
2021/01/13 02:37:41;;;;;;;5.80;3.20;;;-3276.70;95.50;;;;;;4960897;28;20062;-84
2021/01/13 02:40:19;;;;;;;9.02;3.15;;;-3276.70;95.40;;;;;;4938662;29;20058;-82
2021/01/13 02:43:02;;;;;;;8.10;3.30;;;-3276.70;95.50;;;;;;4977715;28;20046;-83
2021/01/13 02:45:31;;;;;;;8.52;3.70;;;0.00;95.70;;;;;;4976458;28;20042;-83
2021/01/13 02:48:10;;;;;;;6.75;3.15;;;0.00;95.60;;;;;;4977073;28;20046;-81
2021/01/13 02:50:43;;;;;;;7.65;2.55;;;0.10;95.40;;;;;;4977693;28;20223;-82
2021/01/13 02:53:49;;;;;;;11.43;2.60;;;0.20;95.20;;;;;;4978480;28;20097;-83
2021/01/13 02:56:32;;;;;;;4.93;2.42;;;0.20;95.10;;;;;;4956060;28;20046;-87
2021/01/13 02:59:08;;;;;;;4.47;2.13;;;0.30;95.20;;;;;;4977937;28;20070;-84
2021/01/13 03:01:40;;;;;;;6.00;2.53;;;0.30;94.80;;;;;;4978422;28;20058;-84
2021/01/13 03:04:09;;;;;;;5.45;2.58;;;0.30;94.90;;;;;;4969760;28;20143;-81
2021/01/13 03:06:44;;;;;;;5.28;2.22;;;0.40;94.60;;;;;;4974776;28;20065;-83
2021/01/13 03:09:12;;;;;;;8.00;3.95;;;0.30;94.90;;;;;;4980136;28;20054;-81
2021/01/13 03:11:40;;;;;;;7.75;2.83;;;0.30;94.80;;;;;;4964003;28;20061;-84
2021/01/13 03:14:20;;;;;;;6.45;2.22;;;0.30;94.80;;;;;;4975023;28;20042;-81
2021/01/13 03:17:11;;;;;;;11.15;3.45;;;0.20;95.00;;;;;;4965680;28;20078;-80
2021/01/13 03:19:57;;;;;;;7.38;2.88;;;0.20;94.90;;;;;;4964570;28;20409;-84
2021/01/13 03:22:29;;;;;;;8.93;2.55;;;0.20;94.80;;;;;;4978875;28;20054;-85
2021/01/13 03:25:03;;;;;;;7.10;3.58;;;0.30;95.00;;;;;;4979634;28;20067;-82
2021/01/13 03:27:33;;;;;;;5.85;2.63;;;0.40;94.80;;;;;;4965544;28;20122;-84
2021/01/13 03:30:03;;;;;;;5.70;2.17;;;0.40;94.80;;;;;;4977010;28;20047;-81
2021/01/13 03:32:42;;;;;;;8.03;2.03;;;0.50;94.40;;;;;;4960056;28;20073;-83
2021/01/13 03:35:13;;;;;;;7.22;2.95;;;0.50;94.50;;;;;;4973916;28;20062;-85
2021/01/13 03:37:57;;;;;;;8.85;2.83;;;0.50;94.40;;;;;;4934643;28;20345;-80
2021/01/13 03:40:27;;;;;;;8.70;2.85;;;0.60;94.40;;;;;;4953884;28;20105;-85
2021/01/13 03:42:57;;;;;;;12.88;3.45;;;0.60;94.10;;;;;;4957893;28;20289;-81
2021/01/13 03:45:36;;;;;;;4.65;2.55;;;0.60;94.20;;;;;;4971316;28;20246;-81
2021/01/13 03:48:11;;;;;;;4.18;2.53;;;0.70;94.00;;;;;;4976846;28;20797;-80
2021/01/13 03:50:42;;;;;;;8.20;3.47;;;0.60;93.80;;;;;;4976795;28;20063;-80
2021/01/13 03:53:11;;;;;;;7.13;3.22;;;0.60;94.00;;;;;;4981700;28;20207;-84
2021/01/13 03:55:41;;;;;;;4.40;1.92;;;0.60;93.90;;;;;;4959481;28;20615;-81
2021/01/13 03:58:34;;;;;;;5.53;2.70;;;0.50;94.10;;;;;;4946448;28;20328;-83
2021/01/13 04:01:14;;;;;;;3.28;1.73;;;0.50;94.30;;;;;;4982409;28;20054;-82
2021/01/13 04:03:54;;;;;;;5.60;2.50;;;0.40;94.30;;;;;;4979382;28;20059;-83
2021/01/13 04:06:23;;;;;;;6.82;2.70;;;0.40;94.50;;;;;;4976830;28;20049;-82
2021/01/13 04:08:50;;;;;;;8.90;2.40;;;0.30;94.70;;;;;;4956934;28;20114;-83
2021/01/13 04:11:20;;;;;;;3.35;2.03;;;0.30;94.90;;;;;;4955857;28;20073;-83
2021/01/13 04:13:49;;;;;;;6.93;2.10;;;0.30;94.80;;;;;;4979954;28;20078;-81
2021/01/13 04:16:18;;;;;;;8.55;2.42;;;0.30;94.90;;;;;;4978228;28;20070;-84
2021/01/13 04:18:49;;;;;;;20.58;2.22;;;0.30;94.90;;;;;;4939341;28;20046;-82
2021/01/13 04:21:19;;;;;;;6.43;2.70;;;0.30;94.90;;;;;;4968864;28;21429;-82
2021/01/13 04:23:47;;;;;;;11.57;3.87;;;0.30;94.80;;;;;;4941600;28;20407;-80
2021/01/13 04:26:15;;;;;;;5.72;2.75;;;0.20;94.90;;;;;;4975521;28;20605;-81
2021/01/13 04:28:42;;;;;;;6.03;2.08;;;0.20;94.90;;;;;;4964326;28;20401;-81
2021/01/13 04:31:10;;;;;;;6.90;2.38;;;0.10;95.00;;;;;;4980364;28;20049;-82
2021/01/13 04:33:37;;;;;;;4.28;2.15;;;0.10;95.10;;;;;;4980330;28;20321;-81
2021/01/13 04:36:12;;;;;;;7.32;2.05;;;0.10;95.10;;;;;;4960524;28;20066;-82
2021/01/13 04:38:39;;;;;;;11.75;2.92;;;0.20;95.10;;;;;;4959757;28;20058;-82
2021/01/13 04:41:08;;;;;;;3.70;1.83;;;0.30;95.00;;;;;;4975388;28;20090;-81
2021/01/13 04:43:54;;;;;;;2.60;1.25;;;0.30;94.90;;;;;;4956228;28;20055;-80
2021/01/13 04:46:32;;;;;;;4.78;2.28;;;0.30;94.80;;;;;;4964435;28;20083;-80
2021/01/13 04:49:08;;;;;;;6.75;1.92;;;0.30;94.90;;;;;;4945043;28;20046;-80
2021/01/13 04:51:38;;;;;;;6.65;1.88;;;0.30;94.80;;;;;;4955583;28;20059;-83
2021/01/13 04:54:08;;;;;;;11.18;3.70;;;0.20;94.80;;;;;;4946372;28;20055;-82
2021/01/13 04:56:46;;;;;;;6.85;2.15;;;0.20;95.00;;;;;;4978548;28;20071;-83
2021/01/13 04:59:58;;;;;;;6.50;2.63;;;0.20;94.90;;;;;;4974644;28;20065;-82
2021/01/13 05:03:06;;;;;;;7.03;3.15;;;0.30;95.10;;;;;;4962449;28;20086;-80
2021/01/13 05:05:50;;;;;;;4.20;2.00;;;0.40;95.20;;;;;;4979280;28;20237;-85
2021/01/13 05:08:29;;;;;;;10.15;2.70;;;0.30;95.30;;;;;;4972138;28;20051;-81
2021/01/13 05:11:09;;;;;;;5.80;1.83;;;0.30;95.40;;;;;;4956314;28;20061;-82
2021/01/13 05:13:39;;;;;;;8.07;2.50;;;0.20;95.50;;;;;;4941181;28;20079;-83
2021/01/13 05:16:11;;;;;;;4.43;1.97;;;0.20;95.70;;;;;;4978867;28;20656;-83
2021/01/13 05:18:56;;;;;;;6.40;2.22;;;0.20;95.80;;;;;;4957058;28;20057;-83
2021/01/13 05:21:25;;;;;;;6.65;2.30;;;0.20;95.90;;;;;;4981389;28;20062;-81
2021/01/13 05:23:58;;;;;;;5.53;2.22;;;0.10;96.00;;;;;;4978477;28;20054;-82
2021/01/13 05:26:26;;;;;;;8.88;3.70;;;0.10;96.10;;;;;;4985939;28;20093;-80
2021/01/13 05:29:23;;;;;;;6.28;2.45;;;0.10;96.20;;;;;;4981804;28;20219;-81
2021/01/13 05:31:51;;;;;;;12.73;3.78;;;0.10;96.10;;;;;;4982420;28;20321;-81
2021/01/13 05:34:19;;;;;;;6.55;2.75;;;0.10;96.30;;;;;;4980211;28;20409;-84
2021/01/13 05:37:16;;;;;;;8.27;3.58;;;0.10;96.20;;;;;;4979289;28;20138;-80
2021/01/13 05:39:45;;;;;;;15.68;3.13;;;0.10;96.30;;;;;;4951698;28;20050;-84
2021/01/13 05:42:15;;;;;;;5.22;2.35;;;0.10;96.20;;;;;;4982582;28;20052;-84
2021/01/13 05:44:43;;;;;;;6.55;2.78;;;0.00;96.20;;;;;;4980464;28;20246;-85
2021/01/13 05:47:43;;;;;;;12.05;3.38;;;0.10;96.30;;;;;;4967735;28;20035;-84
2021/01/13 05:50:13;;;;;;;5.13;1.70;;;0.10;96.20;;;;;;4966897;28;20038;-82
2021/01/13 05:52:42;;;;;;;4.10;2.07;;;0.10;96.20;;;;;;4962011;28;20058;-80
2021/01/13 05:55:12;;;;;;;8.13;2.28;;;0.10;96.10;;;;;;4959727;28;20058;-80
2021/01/13 05:57:51;;;;;;;8.30;2.95;;;0.10;96.00;;;;;;4980952;28;20058;-83
2021/01/13 06:00:20;;;;;;;5.25;3.28;;;0.10;95.90;;;;;;4983921;28;20038;-82
2021/01/13 06:02:48;;;;;;;8.93;2.40;;;0.20;95.90;;;;;;4976595;28;20058;-82
2021/01/13 06:05:16;;;;;;;6.88;2.75;;;0.20;95.90;;;;;;4981077;28;20127;-85
2021/01/13 06:07:51;;;;;;;11.85;3.60;;;0.20;95.80;;;;;;4979113;28;20475;-82
2021/01/13 06:10:20;;;;;;;2.92;1.75;;;0.20;95.70;;;;;;4980465;28;20063;-84
2021/01/13 06:12:49;;;;;;;8.23;2.80;;;0.30;95.50;;;;;;4966512;28;20047;-80
2021/01/13 06:15:24;;;;;;;9.45;3.13;;;0.30;95.40;;;;;;4974204;28;20068;-81
2021/01/13 06:17:53;;;;;;;5.82;3.05;;;0.20;95.20;;;;;;4961649;28;20062;-85
2021/01/13 06:20:22;;;;;;;10.80;2.30;;;0.10;95.30;;;;;;4983058;28;20059;-84
2021/01/13 06:22:50;;;;;;;5.60;3.13;;;0.00;95.70;;;;;;4965340;28;20069;-83
2021/01/13 06:25:26;;;;;;;3.85;2.20;;;0.00;95.70;;;;;;4959198;28;20051;-79
2021/01/13 06:28:25;;;;;;;6.07;2.88;;;0.00;95.80;;;;;;4952003;28;20158;-83
2021/01/13 06:31:09;;;;;;;13.25;3.80;;;0.00;95.90;;;;;;4940814;28;20050;-82
2021/01/13 06:34:10;;;;;;;5.88;1.77;;;0.00;95.90;;;;;;4986346;28;20169;-80
2021/01/13 06:36:49;;;;;;;6.00;2.70;;;0.00;95.80;;;;;;4975658;28;20063;-81
2021/01/13 06:39:17;;;;;;;4.45;2.10;;;0.10;95.50;;;;;;4945796;28;20039;-84
2021/01/13 06:41:46;;;;;;;5.43;2.70;;;0.00;95.50;;;;;;4981411;28;20085;-81
2021/01/13 06:44:15;;;;;;;7.00;1.90;;;0.00;95.40;;;;;;4978340;28;20063;-84
2021/01/13 06:46:42;;;;;;;4.28;2.05;;;0.00;95.30;;;;;;4979830;28;20112;-81
2021/01/13 06:49:14;;;;;;;5.95;1.83;;;0.00;95.50;;;;;;4978909;28;20069;-81
2021/01/13 06:51:46;;;;;;;5.80;2.30;;;-3276.70;95.60;;;;;;4964846;28;20415;-82
2021/01/13 06:54:15;;;;;;;8.05;2.75;;;-3276.70;95.60;;;;;;4977452;28;20054;-83
2021/01/13 06:56:51;;;;;;;7.22;1.88;;;-3276.70;95.70;;;;;;4973288;28;20054;-83
2021/01/13 06:59:22;;;;;;;6.30;3.03;;;-3276.70;95.60;;;;;;4961713;28;20160;-83
2021/01/13 07:01:51;;;;;;;10.68;2.47;;;-3276.70;95.60;;;;;;4979411;28;20054;-84
2021/01/13 07:04:18;;;;;;;4.65;2.47;;;-3276.60;95.70;;;;;;4965837;28;20126;-79
2021/01/13 07:06:59;;;;;;;5.30;2.63;;;-3276.60;95.70;;;;;;4979048;28;20066;-80
2021/01/13 07:09:38;;;;;;;4.50;2.58;;;-3276.60;95.70;;;;;;4977858;28;20223;-82
2021/01/13 07:12:13;;;;;;;6.82;1.58;;;-3276.60;95.60;;;;;;4976831;28;20346;-81
2021/01/13 07:14:42;;;;;;;5.40;2.03;;;-3276.60;95.50;;;;;;4980704;28;20077;-81
2021/01/13 07:17:10;;;;;;;10.10;2.03;;;-3276.60;95.60;;;;;;4964568;28;20042;-80
2021/01/13 07:19:44;;;;;;;9.23;2.25;;;-3276.60;95.60;;;;;;4970509;28;20042;-82
2021/01/13 07:22:12;;;;;;;3.20;1.45;;;-3276.70;95.40;;;;;;4961826;28;20261;-80
2021/01/13 07:24:42;;;;;;;3.13;1.27;;;0.00;95.30;;;;;;4972179;28;20073;-84
2021/01/13 07:27:12;;;;;;;3.28;1.63;;;0.00;95.20;;;;;;4964030;28;20241;-82
2021/01/13 07:29:40;;;;;;;8.00;1.65;;;0.10;94.90;;;;;;4984613;28;20114;-80
2021/01/13 07:32:09;;;;;;;2.60;0.90;;;0.20;94.80;;;;;;4960318;28;20050;-79
2021/01/13 07:34:37;;;;;;;8.38;1.65;;;0.20;94.30;;;;;;4977395;28;20078;-80
2021/01/13 07:37:07;;;;;;;5.97;1.77;;;0.30;93.80;;;;;;4965509;28;20353;-82
2021/01/13 07:40:13;;;;;;;6.43;2.00;;;0.30;93.80;;;;;;4975032;28;20054;-80
2021/01/13 07:42:45;;;;;;;6.32;1.80;;;0.40;93.80;;;;;;4982926;28;20069;-81
2021/01/13 07:45:15;;;;;;;4.13;1.42;;;0.50;93.20;;;;;;4982564;28;20063;-82
2021/01/13 07:48:33;;;;;;;3.92;1.50;;;0.50;93.10;;;;;;4961133;28;20138;-85
2021/01/13 07:51:07;;;;;;;3.05;1.25;;;0.60;92.70;;;;;;4960832;28;20062;-82
2021/01/13 07:53:37;;;;;;;7.95;1.85;;;0.60;92.70;;;;;;4961373;28;20043;-82
2021/01/13 07:56:07;;;;;;;5.00;1.33;;;0.70;92.40;;;;;;4942224;28;20098;-81
2021/01/13 07:58:36;;;;;;;4.30;2.28;;;0.70;92.50;;;;;;4976886;28;20038;-82
2021/01/13 08:01:48;;;;;;;7.20;1.60;;;0.70;92.00;;;;;;4965488;28;20047;-81
2021/01/13 08:05:04;;;;;;;14.45;1.95;;;0.70;92.40;;;;;;4965425;28;20157;-81
2021/01/13 08:07:38;;;;;;;2.63;1.33;;;0.70;91.80;;;;;;4886299;29;20261;-84
2021/01/13 08:10:07;;;;;;;4.57;1.40;;;0.80;92.00;;;;;;4954823;28;20054;-80
2021/01/13 08:13:30;;;;;;;4.53;0.88;;;0.80;91.80;;;;;;4978592;28;20392;-81
2021/01/13 08:16:46;;;;;;;6.32;1.17;;;0.90;91.80;;;;;;4873049;29;20116;-82
2021/01/13 08:20:04;;;;;;;6.40;1.10;;;0.80;91.90;;;;;;4903701;29;20068;-82
2021/01/13 08:22:31;;;;;;;2.55;1.20;;;0.80;91.80;;;;;;4978808;28;20326;-82
2021/01/13 08:25:09;;;;;;;6.22;2.45;;;0.80;91.80;;;;;;4973840;28;20038;-79
2021/01/13 08:27:37;;;;;;;3.85;1.77;;;0.80;91.90;;;;;;4961080;28;20113;-81
2021/01/13 08:30:05;;;;;;;2.70;1.20;;;0.90;91.60;;;;;;4977687;28;20273;-82
2021/01/13 08:32:41;;;;;;;10.45;1.88;;;0.80;92.00;;;;;;4973842;28;20067;-82
2021/01/13 08:35:09;;;;;;;3.65;1.77;;;0.90;91.50;;;;;;4976388;28;20057;-81
2021/01/13 08:37:37;;;;;;;3.38;1.40;;;0.90;91.60;;;;;;4980516;28;20330;-82
2021/01/13 08:40:27;;;;;;;2.95;1.67;;;0.90;91.90;;;;;;4943616;28;20051;-83
2021/01/13 08:43:10;;;;;;;4.50;2.33;;;1.00;91.90;;;;;;4975776;28;20094;-81
2021/01/13 08:45:39;;;;;;;6.10;1.88;;;1.00;91.80;;;;;;4961358;28;20054;-82
2021/01/13 08:48:10;;;;;;;4.10;0.90;;;0.80;92.20;;;;;;4967229;28;20043;-83
2021/01/13 08:50:38;;;;;;;;;;;0.90;92.40;;;;;;4977431;28;20146;-81
2021/01/13 08:53:06;;;;;;;2.15;0.95;;;0.90;92.20;;;;;;4975088;28;19933;-84
2021/01/13 08:55:34;;;;;;;3.17;1.20;;;1.00;91.90;;;;;;4977646;28;20122;-84
2021/01/13 08:58:08;;;;;;;1.65;0.82;;;1.00;91.80;;;;;;4975678;28;20393;-81
2021/01/13 09:00:38;;;;;;;4.03;1.48;;;0.90;92.00;;;;;;4983184;28;20063;-81
2021/01/13 09:03:11;;;;;;;3.33;1.77;;;1.00;92.10;;;;;;4981598;28;20105;-82
2021/01/13 09:05:40;;;;;;;3.47;1.45;;;1.00;91.70;;;;;;4944513;28;20047;-82
2021/01/13 09:08:11;;;;;;;3.08;1.80;;;1.00;91.10;;;;;;4981318;28;20054;-83
2021/01/13 09:10:49;;;;;;;4.38;1.23;;;1.00;91.20;;;;;;4962288;28;20061;-81
2021/01/13 09:13:38;;;;;;;2.20;1.15;;;1.00;91.40;;;;;;4977151;28;21914;-81
2021/01/13 09:16:34;;;;;;;9.35;1.48;;;1.00;91.40;;;;;;4964915;28;20066;-82
2021/01/13 09:19:08;;;;;;;2.47;1.20;;;1.10;91.30;;;;;;4980388;28;20047;-81
2021/01/13 09:21:37;;;;;;;4.22;2.15;;;1.20;90.80;;;;;;4980046;28;20061;-84
2021/01/13 09:24:06;;;;;;;5.28;1.20;;;1.20;90.70;;;;;;4959663;28;20062;-82
2021/01/13 09:26:35;;;;;;;4.70;2.03;;;1.20;90.50;;;;;;4985797;28;20062;-82
2021/01/13 09:29:10;;;;;;;2.67;1.17;;;1.20;90.60;;;;;;4964260;28;20215;-80
2021/01/13 09:31:39;;;;;;;5.57;1.95;;;1.20;90.40;;;;;;4977754;28;20074;-85
2021/01/13 09:34:08;;;;;;;6.53;2.08;;;1.30;90.50;;;;;;4985307;28;20115;-81
2021/01/13 09:36:58;;;;;;;3.77;1.77;;;1.30;90.20;;;;;;4949268;28;20098;-84
2021/01/13 09:39:34;;;;;;;5.35;1.52;;;1.30;90.00;;;;;;4975405;28;20294;-81
2021/01/13 09:42:03;;;;;;;11.23;1.90;;;1.40;90.00;;;;;;4986926;28;20055;-83
2021/01/13 09:44:32;;;;;;;4.03;1.75;;;1.50;89.40;;;;;;4962758;28;20059;-81
2021/01/13 09:47:00;;;;;;;3.25;1.42;;;1.50;89.60;;;;;;4966476;28;20058;-81
2021/01/13 09:49:29;;;;;;;7.32;1.33;;;1.50;89.20;;;;;;4962580;28;20102;-82
2021/01/13 09:52:12;;;;;;;3.50;1.38;;;1.60;88.70;;;;;;4977112;28;20413;-83
2021/01/13 09:54:40;;;;;;;3.35;1.42;;;1.50;89.10;;;;;;4976675;28;20062;-83
2021/01/13 09:57:08;;;;;;;8.55;1.25;;;1.60;88.70;;;;;;4965109;28;20054;-83
2021/01/13 09:59:38;;;;;;;8.20;2.20;;;1.50;88.80;;;;;;4950289;28;20087;-83
2021/01/13 10:02:05;;;;;;;6.85;1.55;;;1.40;89.20;;;;;;4963003;28;20322;-83
2021/01/13 10:04:34;;;;;;;5.22;2.55;;;1.60;88.80;;;;;;4984333;28;20066;-80
2021/01/13 10:07:07;;;;;;;6.78;1.67;;;1.60;88.60;;;;;;4984699;28;20066;-83
2021/01/13 10:09:35;;;;;;;2.92;1.45;;;1.60;88.90;;;;;;4978627;28;20066;-85
2021/01/13 10:12:05;;;;;;;6.20;2.03;;;1.70;88.90;;;;;;4978443;28;20059;-81
2021/01/13 10:14:35;;;;;;;4.03;1.60;;;1.70;88.80;;;;;;4975893;28;20070;-80
2021/01/13 10:17:05;;;;;;;3.15;1.63;;;1.80;88.30;;;;;;4976620;28;20050;-83
2021/01/13 10:19:34;;;;;;;9.80;2.25;;;2.00;87.70;;;;;;4958007;28;20085;-81
2021/01/13 10:22:03;;;;;;;7.43;2.17;;;2.10;87.70;;;;;;4975898;28;20082;-80
2021/01/13 10:24:31;;;;;;;2.67;1.13;;;2.20;87.10;;;;;;4958732;28;20094;-82
2021/01/13 10:27:01;;;;;;;6.70;2.00;;;2.30;87.00;;;;;;4977440;28;20245;-83
2021/01/13 10:29:29;;;;;;;9.25;1.67;;;2.20;87.10;;;;;;4963610;28;20071;-84
2021/01/13 10:31:58;;;;;;;3.63;1.35;;;2.20;86.80;;;;;;4962619;28;20065;-82
2021/01/13 10:34:26;;;;;;;6.20;2.25;;;2.10;86.90;;;;;;4977390;28;20159;-82
2021/01/13 10:36:54;;;;;;;4.03;1.45;;;2.40;86.90;;;;;;4975470;28;20055;-82
2021/01/13 10:39:24;;;;;;;4.60;1.90;;;2.60;85.90;;;;;;4978379;28;20063;-84
2021/01/13 10:41:53;;;;;;;3.25;1.85;;;2.80;85.50;;;;;;4976562;28;20105;-81
2021/01/13 10:44:23;;;;;;;4.15;1.90;;;2.70;85.90;;;;;;4974071;28;21124;-86
2021/01/13 10:46:56;;;;;;;6.00;2.22;;;2.70;85.20;;;;;;4961536;28;20059;-84
2021/01/13 10:49:29;;;;;;;3.20;1.58;;;2.60;86.20;;;;;;4960326;28;21900;-83
2021/01/13 10:51:59;;;;;;;3.95;2.05;;;2.70;86.10;;;;;;4978361;28;20055;-83
2021/01/13 10:54:30;;;;;;;6.53;2.65;;;2.80;85.40;;;;;;4955203;28;20058;-83
2021/01/13 10:57:03;;;;;;;4.55;1.83;;;3.00;85.00;;;;;;4982150;28;20050;-82
2021/01/13 10:59:30;;;;;;;4.80;2.67;;;2.80;85.30;;;;;;4978562;28;20069;-83
2021/01/13 11:02:02;;;;;;;6.90;2.80;;;2.70;85.70;;;;;;4962842;28;20098;-81
2021/01/13 11:04:33;;;;;;;7.28;1.63;;;2.90;85.60;;;;;;4965441;28;20058;-83
2021/01/13 11:07:06;;;;;;;7.65;2.72;;;3.00;85.30;;;;;;4947929;28;20129;-83
2021/01/13 11:09:36;;;;;;;9.38;2.55;;;2.90;84.90;;;;;;4961750;28;20065;-82
2021/01/13 11:12:04;;;;;;;6.38;1.98;;;2.90;85.20;;;;;;4960925;28;20233;-82
2021/01/13 11:14:33;;;;;;;3.97;1.67;;;3.00;85.20;;;;;;4979103;28;20093;-80
2021/01/13 11:17:09;;;;;;;4.05;1.70;;;2.80;85.90;;;;;;4979684;28;20063;-83
2021/01/13 11:19:38;;;;;;;4.97;1.55;;;2.70;86.30;;;;;;4979223;28;20059;-82
2021/01/13 11:22:06;;;;;;;5.78;1.92;;;3.00;85.80;;;;;;4976698;28;20055;-83
2021/01/13 11:24:36;;;;;;;5.95;2.08;;;3.10;85.50;;;;;;4948915;28;20090;-84
2021/01/13 11:27:06;;;;;;;5.82;2.10;;;3.20;84.90;;;;;;4979101;28;20067;-83
2021/01/13 11:29:36;;;;;;;4.32;2.05;;;3.30;84.50;;;;;;4979726;28;20046;-83
2021/01/13 11:32:06;;;;;;;4.63;1.58;;;3.10;85.40;;;;;;4961663;28;20074;-83
2021/01/13 11:34:34;;;;;;;3.80;1.75;;;3.10;85.80;;;;;;4954073;28;20078;-84
2021/01/13 11:37:46;;;;;;;9.57;2.53;;;3.10;85.00;;;;;;4975977;28;20054;-81
2021/01/13 11:40:45;;;;;;;9.40;3.17;;;3.10;85.30;;;;;;4912195;28;20337;-85
2021/01/13 11:43:36;;;;;;;8.30;2.10;;;3.10;85.10;;;;;;4970288;28;20085;-82
2021/01/13 11:46:11;;;;;;;12.00;2.33;;;3.20;85.00;;;;;;4941065;28;20070;-81
2021/01/13 11:49:08;;;;;;;5.05;2.30;;;3.40;84.70;;;;;;4976806;28;20055;-83
2021/01/13 11:51:39;;;;;;;5.15;2.05;;;3.70;83.50;;;;;;4960461;28;20058;-84
2021/01/13 11:54:08;;;;;;;7.57;1.40;;;3.50;83.70;;;;;;4975569;28;20054;-83
2021/01/13 11:56:36;;;;;;;3.00;1.63;;;3.40;84.10;;;;;;4957735;28;20059;-85
2021/01/13 11:59:03;;;;;;;4.15;1.73;;;3.20;84.20;;;;;;4958559;28;20122;-82
2021/01/13 12:01:35;;;;;;;4.47;2.13;;;3.30;84.50;;;;;;4962387;28;20055;-85
2021/01/13 12:04:04;;;;;;;6.93;1.95;;;3.20;84.60;;;;;;4978468;28;20273;-84
2021/01/13 12:06:32;;;;;;;5.65;1.55;;;3.20;85.20;;;;;;4975169;28;22483;-81
2021/01/13 12:08:59;;;;;;;8.70;2.55;;;3.50;83.30;;;;;;4974493;28;20097;-83
2021/01/13 12:11:27;;;;;;;6.38;1.92;;;3.60;83.50;;;;;;4959890;28;20059;-82
2021/01/13 12:13:54;;;;;;;5.90;1.70;;;3.30;84.70;;;;;;4971270;28;20062;-83
2021/01/13 12:16:22;;;;;;;4.53;1.35;;;3.20;84.70;;;;;;4934895;29;20066;-84
2021/01/13 12:18:52;;;;;;;6.65;2.38;;;3.20;84.70;;;;;;4933515;29;20052;-83
2021/01/13 12:21:30;;;;;;;4.68;1.80;;;3.10;85.60;;;;;;4950784;28;20128;-85
2021/01/13 12:23:59;;;;;;;4.95;1.80;;;3.10;85.40;;;;;;4930110;29;20158;-84
2021/01/13 12:26:31;;;;;;;5.05;1.50;;;3.20;85.20;;;;;;4934434;29;20147;-86
2021/01/13 12:29:14;;;;;;;3.45;1.75;;;3.20;85.10;;;;;;4930249;29;20059;-82
2021/01/13 12:31:43;;;;;;;6.43;1.42;;;3.20;85.00;;;;;;4936423;29;20278;-84
2021/01/13 12:34:14;;;;;;;5.03;1.50;;;3.10;85.70;;;;;;4953323;28;20044;-83
2021/01/13 12:36:43;;;;;;;6.68;1.85;;;3.10;86.20;;;;;;4937447;29;20060;-83
2021/01/13 12:39:10;;;;;;;6.95;2.25;;;3.20;85.60;;;;;;4919154;29;20048;-84
2021/01/13 12:41:39;;;;;;;3.05;1.52;;;3.30;85.50;;;;;;4939188;29;20067;-81
2021/01/13 12:44:07;;;;;;;4.25;1.70;;;3.30;84.90;;;;;;4939521;29;20067;-80
2021/01/13 12:46:36;;;;;;;5.18;1.50;;;3.20;85.30;;;;;;4934755;29;20062;-80
2021/01/13 12:49:05;;;;;;;4.50;1.92;;;3.20;85.70;;;;;;4929901;29;20064;-82
2021/01/13 12:51:32;;;;;;;3.10;1.58;;;3.20;85.40;;;;;;4940172;29;20067;-82
2021/01/13 12:54:02;;;;;;;3.55;1.45;;;3.00;85.70;;;;;;4938937;29;20067;-83
2021/01/13 12:56:32;;;;;;;3.88;1.67;;;3.10;85.50;;;;;;4934734;29;20087;-83
2021/01/13 12:59:02;;;;;;;5.60;1.20;;;3.10;85.50;;;;;;4954943;28;20056;-82
2021/01/13 13:01:38;;;;;;;3.28;1.90;;;3.10;85.20;;;;;;4937224;29;20112;-84
2021/01/13 13:04:06;;;;;;;9.23;2.08;;;3.20;85.00;;;;;;4938433;29;20410;-82
2021/01/13 13:06:34;;;;;;;6.18;1.38;;;3.30;84.90;;;;;;4928199;29;20055;-83
2021/01/13 13:09:04;;;;;;;6.03;1.48;;;3.50;84.50;;;;;;4939263;29;20040;-82
2021/01/13 13:11:31;;;;;;;3.97;1.80;;;3.70;84.00;;;;;;4942530;29;20059;-84
2021/01/13 13:13:59;;;;;;;5.30;2.03;;;4.60;81.40;;;;;;4935312;28;20502;-85
2021/01/13 13:16:27;;;;;;;2.85;1.35;;;4.70;79.90;;;;;;4974552;28;20050;-82
2021/01/13 13:18:55;;;;;;;5.70;1.77;;;4.80;79.50;;;;;;4971124;28;20304;-84
2021/01/13 13:21:25;;;;;;;7.20;1.63;;;4.70;80.60;;;;;;4973504;28;20458;-83
2021/01/13 13:23:53;;;;;;;4.07;2.00;;;4.30;80.60;;;;;;4975079;28;20066;-85